createdAt,value
2023-02-24T00:01:32.302Z,3.65
2023-02-24T00:04:00.291Z,1.30
2023-02-24T00:06:36.867Z,1.38
2023-02-24T00:09:06.439Z,2.65
2023-02-24T00:11:33.244Z,0.98
2023-02-24T00:14:00.380Z,0.90
2023-02-24T00:16:27.873Z,1.20
2023-02-24T00:18:55.014Z,1.98
2023-02-24T00:21:22.945Z,1.10
2023-02-24T00:23:49.779Z,1.42
2023-02-24T00:26:16.826Z,1.73
2023-02-24T00:28:44.662Z,1.13
2023-02-24T00:31:16.537Z,1.15
2023-02-24T00:33:44.138Z,1.85
2023-02-24T00:36:11.155Z,1.30
2023-02-24T00:38:38.784Z,2.22
2023-02-24T00:41:12.673Z,1.55
2023-02-24T00:43:39.484Z,1.45
2023-02-24T00:46:11.374Z,1.10
2023-02-24T00:48:41.691Z,1.70
2023-02-24T00:51:10.319Z,1.42
2023-02-24T00:53:38.470Z,1.00
2023-02-24T00:56:12.111Z,1.10
2023-02-24T00:58:40.982Z,1.40
2023-02-24T01:01:18.112Z,1.40
2023-02-24T01:03:45.772Z,1.33
2023-02-24T01:06:13.623Z,1.20
2023-02-24T01:08:47.455Z,1.42
2023-02-24T01:11:33.774Z,1.42
2023-02-24T01:14:00.766Z,1.10
2023-02-24T01:16:28.637Z,1.35
2023-02-24T01:18:55.565Z,1.40
2023-02-24T01:21:22.813Z,1.75
2023-02-24T01:23:50.544Z,1.30
2023-02-24T01:26:18.328Z,1.10
2023-02-24T01:28:48.269Z,1.25
2023-02-24T01:31:21.183Z,1.55
2023-02-24T01:33:50.583Z,1.65
2023-02-24T01:36:22.284Z,1.30
2023-02-24T01:41:20.439Z,1.23
2023-02-24T01:44:14.178Z,1.50
2023-02-24T01:46:48.508Z,0.93
2023-02-24T01:49:18.356Z,1.10
2023-02-24T01:51:50.771Z,1.98
2023-02-24T01:54:22.118Z,1.50
2023-02-24T01:56:52.460Z,1.08
2023-02-24T01:59:20.838Z,1.70
2023-02-24T02:01:48.082Z,3.05
2023-02-24T02:04:19.866Z,1.38
2023-02-24T02:06:47.493Z,1.35
2023-02-24T02:09:15.796Z,1.38
2023-02-24T02:11:52.323Z,2.50
2023-02-24T02:14:20.911Z,1.85
2023-02-24T02:17:02.937Z,1.58
2023-02-24T02:19:47.876Z,1.00
2023-02-24T02:22:45.351Z,1.77
2023-02-24T02:25:16.607Z,1.30
2023-02-24T02:27:46.592Z,1.92
2023-02-24T02:30:23.397Z,1.27
2023-02-24T02:33:08.788Z,2.03
2023-02-24T02:35:38.728Z,1.88
2023-02-24T02:38:05.519Z,1.50
2023-02-24T02:40:41.774Z,1.10
2023-02-24T02:43:08.603Z,3.70
2023-02-24T02:45:41.312Z,1.40
2023-02-24T02:48:11.896Z,1.60
2023-02-24T02:50:43.299Z,1.73
2023-02-24T02:53:12.470Z,1.42
2023-02-24T02:55:45.687Z,1.50
2023-02-24T02:58:20.066Z,1.30
2023-02-24T03:00:58.799Z,1.40
2023-02-24T03:03:27.935Z,1.40
2023-02-24T03:05:57.390Z,1.52
2023-02-24T03:08:25.840Z,1.50
2023-02-24T03:10:53.873Z,1.45
2023-02-24T03:13:23.109Z,2.45
2023-02-24T03:15:53.767Z,1.77
2023-02-24T03:18:29.412Z,1.33
2023-02-24T03:21:01.790Z,1.48
2023-02-24T03:23:36.865Z,1.15
2023-02-24T03:26:17.515Z,1.58
2023-02-24T03:29:06.713Z,0.95
2023-02-24T03:31:39.234Z,1.55
2023-02-24T03:34:10.717Z,1.15
2023-02-24T03:36:37.833Z,1.58
2023-02-24T03:39:05.975Z,1.98
2023-02-24T03:41:41.173Z,1.50
2023-02-24T03:44:11.236Z,1.48
2023-02-24T03:46:39.115Z,1.60
2023-02-24T03:49:16.587Z,1.35
2023-02-24T03:51:49.470Z,1.65
2023-02-24T03:54:35.021Z,2.47
2023-02-24T03:57:02.220Z,2.00
2023-02-24T03:59:36.168Z,1.15
2023-02-24T04:02:22.121Z,1.10
2023-02-24T04:04:49.418Z,1.42
2023-02-24T04:07:42.552Z,2.70
2023-02-24T04:10:21.638Z,1.20
2023-02-24T04:13:03.772Z,1.40
2023-02-24T04:15:45.586Z,1.13
2023-02-24T04:20:43.949Z,0.98
2023-02-24T04:23:16.282Z,1.13
2023-02-24T04:25:45.346Z,3.22
2023-02-24T04:28:12.830Z,0.90
2023-02-24T04:30:42.317Z,2.80
2023-02-24T04:33:10.107Z,1.13
2023-02-24T04:35:38.045Z,1.08
2023-02-24T04:38:05.407Z,1.02
2023-02-24T04:40:32.841Z,1.02
2023-02-24T04:43:02.804Z,1.27
2023-02-24T04:45:30.557Z,0.93
2023-02-24T04:48:02.375Z,1.42
2023-02-24T04:52:57.438Z,1.30
2023-02-24T04:55:26.519Z,0.98
2023-02-24T04:57:53.997Z,1.00
2023-02-24T05:00:26.477Z,1.05
2023-02-24T05:02:56.043Z,1.50
2023-02-24T05:05:25.867Z,1.45
2023-02-24T05:07:54.658Z,1.95
2023-02-24T05:10:22.630Z,1.35
2023-02-24T05:12:49.626Z,0.95
2023-02-24T05:15:16.791Z,1.35
2023-02-24T05:17:43.883Z,1.50
2023-02-24T05:20:29.579Z,1.00
2023-02-24T05:22:57.130Z,0.95
2023-02-24T05:25:25.323Z,1.10
2023-02-24T05:27:52.172Z,1.00
2023-02-24T05:30:19.097Z,0.90
2023-02-24T05:32:45.920Z,1.20
2023-02-24T05:35:12.732Z,1.40
2023-02-24T05:37:42.131Z,1.13
2023-02-24T05:40:13.323Z,1.20
2023-02-24T05:42:40.944Z,1.38
2023-02-24T05:45:09.165Z,1.33
2023-02-24T05:47:37.076Z,1.67
2023-02-24T05:50:04.448Z,1.50
2023-02-24T05:52:31.617Z,2.05
2023-02-24T05:55:00.845Z,1.23
2023-02-24T05:57:32.929Z,1.40
2023-02-24T05:59:59.675Z,1.50
2023-02-24T06:02:37.245Z,1.20
2023-02-24T06:05:04.557Z,1.23
2023-02-24T06:07:34.564Z,1.65
2023-02-24T06:10:01.980Z,1.27
2023-02-24T06:12:30.143Z,1.88
2023-02-24T06:15:00.192Z,1.23
2023-02-24T06:17:28.403Z,1.65
2023-02-24T06:19:55.569Z,3.13
2023-02-24T06:22:23.215Z,3.88
2023-02-24T06:24:50.210Z,2.70
2023-02-24T06:27:19.607Z,4.57
2023-02-24T06:29:50.038Z,7.25
2023-02-24T06:32:21.326Z,3.03
2023-02-24T06:34:48.232Z,6.07
2023-02-24T06:37:15.849Z,3.05
2023-02-24T06:39:43.269Z,3.67
2023-02-24T06:42:11.858Z,3.00
2023-02-24T06:44:39.811Z,5.15
2023-02-24T06:47:08.118Z,5.70
2023-02-24T06:49:34.925Z,8.80
2023-02-24T06:52:01.821Z,8.77
2023-02-24T06:54:30.647Z,6.97
2023-02-24T06:57:00.347Z,2.95
2023-02-24T06:59:30.638Z,8.18
2023-02-24T07:02:02.014Z,3.33
2023-02-24T07:04:29.706Z,3.42
2023-02-24T07:06:58.214Z,8.88
2023-02-24T07:09:26.074Z,2.70
2023-02-24T07:11:56.171Z,10.80
2023-02-24T07:14:24.588Z,4.03
2023-02-24T07:16:55.190Z,1.10
2023-02-24T07:19:23.863Z,1.70
2023-02-24T07:21:52.578Z,1.48
2023-02-24T07:24:33.602Z,1.30
2023-02-24T07:27:01.542Z,1.58
2023-02-24T07:29:29.852Z,1.60
2023-02-24T07:32:03.551Z,1.75
2023-02-24T07:34:34.557Z,1.52
2023-02-24T07:37:07.784Z,1.90
2023-02-24T07:39:36.839Z,1.73
2023-02-24T07:42:04.189Z,1.42
2023-02-24T07:44:31.061Z,2.00
2023-02-24T07:46:59.518Z,2.50
2023-02-24T07:49:28.072Z,2.63
2023-02-24T07:51:58.294Z,2.50
2023-02-24T07:54:27.275Z,2.58
2023-02-24T08:03:41.686Z,4.22
2023-02-24T08:06:26.627Z,2.80
2023-02-24T08:08:58.046Z,3.53
2023-02-24T08:11:35.736Z,3.00
2023-02-24T08:14:03.487Z,3.33
2023-02-24T08:16:42.349Z,4.30
2023-02-24T08:19:13.227Z,3.53
2023-02-24T08:21:41.702Z,4.53
2023-02-24T08:24:17.753Z,4.47
2023-02-24T08:26:45.888Z,4.50
2023-02-24T08:29:13.067Z,4.78
2023-02-24T08:31:40.043Z,6.38
2023-02-24T08:34:07.145Z,6.13
2023-02-24T08:36:34.225Z,5.32
2023-02-24T08:39:01.580Z,5.68
2023-02-24T08:41:45.459Z,5.72
2023-02-24T08:44:12.788Z,6.13
2023-02-24T08:46:40.326Z,4.95
2023-02-24T08:49:11.024Z,6.07
2023-02-24T08:51:44.074Z,5.10
2023-02-24T08:54:19.448Z,6.15
2023-02-24T08:56:56.004Z,8.13
2023-02-24T08:59:38.020Z,7.70
2023-02-24T09:02:24.410Z,29.63
2023-02-24T09:04:56.467Z,7.75
2023-02-24T09:07:28.233Z,7.13
2023-02-24T09:09:56.539Z,7.78
2023-02-24T09:12:28.855Z,6.30
2023-02-24T09:15:01.948Z,9.93
2023-02-24T09:17:50.544Z,8.32
2023-02-24T09:20:27.380Z,11.07
2023-02-24T09:23:00.634Z,11.07
2023-02-24T09:25:40.921Z,6.80
2023-02-24T09:28:17.467Z,9.45
2023-02-24T09:30:55.193Z,6.85
2023-02-24T09:33:38.980Z,8.88
2023-02-24T09:36:10.417Z,13.18
2023-02-24T09:39:00.234Z,21.92
2023-02-24T09:41:59.451Z,25.27
2023-02-24T09:44:29.003Z,18.55
2023-02-24T09:46:59.394Z,10.98
2023-02-24T09:49:46.515Z,12.65
2023-02-24T09:52:17.649Z,16.25
2023-02-24T09:55:06.284Z,7.97
2023-02-24T09:57:46.454Z,9.48
2023-02-24T10:00:25.586Z,10.88
2023-02-24T10:03:03.849Z,17.98
2023-02-24T10:05:38.744Z,10.68
2023-02-24T10:08:14.038Z,9.02
2023-02-24T10:11:00.872Z,7.93
2023-02-24T10:13:32.512Z,11.55
2023-02-24T10:16:07.114Z,6.28
2023-02-24T10:18:45.267Z,10.25
2023-02-24T10:21:48.493Z,6.13
2023-02-24T10:24:22.842Z,5.47
2023-02-24T10:27:01.306Z,6.90
2023-02-24T10:29:50.949Z,7.03
2023-02-24T10:32:31.720Z,4.60
2023-02-24T10:34:58.630Z,7.30
2023-02-24T10:37:29.603Z,4.88
2023-02-24T10:40:00.828Z,2.88
2023-02-24T10:42:31.724Z,4.03
2023-02-24T10:45:17.364Z,3.70
2023-02-24T10:47:45.967Z,3.35
2023-02-24T10:50:19.660Z,3.05
2023-02-24T10:53:05.010Z,3.03
2023-02-24T10:55:44.143Z,7.90
2023-02-24T10:58:16.111Z,4.13
2023-02-24T11:01:12.915Z,4.65
2023-02-24T11:03:46.254Z,3.50
2023-02-24T11:06:42.167Z,4.82
2023-02-24T11:09:30.493Z,5.95
2023-02-24T11:12:22.681Z,3.50
2023-02-24T11:15:15.651Z,5.38
2023-02-24T11:17:48.861Z,5.78
2023-02-24T11:20:19.280Z,7.10
2023-02-24T11:22:49.476Z,6.50
2023-02-24T11:25:21.180Z,7.10
2023-02-24T11:30:27.058Z,11.20
2023-02-24T11:33:10.448Z,8.55
2023-02-24T11:35:43.339Z,11.15
2023-02-24T11:38:31.807Z,7.00
2023-02-24T11:41:03.175Z,7.57
2023-02-24T11:43:31.531Z,5.65
2023-02-24T11:46:02.142Z,5.00
2023-02-24T11:48:49.227Z,7.22
2023-02-24T11:51:16.199Z,4.82
2023-02-24T11:53:51.144Z,4.28
2023-02-24T11:56:18.518Z,6.25
2023-02-24T11:58:51.931Z,4.68
2023-02-24T12:01:19.899Z,5.10
2023-02-24T12:03:54.060Z,5.75
2023-02-24T12:06:37.749Z,4.93
2023-02-24T12:09:15.797Z,5.20
2023-02-24T12:11:42.914Z,5.45
2023-02-24T12:14:21.462Z,5.43
2023-02-24T12:16:53.600Z,5.93
2023-02-24T12:19:43.687Z,6.85
2023-02-24T12:22:15.211Z,6.78
2023-02-24T12:24:47.291Z,5.50
2023-02-24T12:27:14.557Z,4.40
2023-02-24T12:29:48.813Z,5.53
2023-02-24T12:32:41.337Z,5.28
2023-02-24T12:35:20.092Z,5.63
2023-02-24T12:37:59.549Z,4.63
2023-02-24T12:40:48.559Z,7.88
2023-02-24T12:43:31.880Z,9.18
2023-02-24T12:46:17.332Z,7.10
2023-02-24T12:49:03.461Z,9.35
2023-02-24T12:51:51.579Z,8.50
2023-02-24T12:54:21.484Z,9.77
2023-02-24T12:56:54.825Z,9.45
2023-02-24T12:59:26.401Z,8.25
2023-02-24T13:04:38.881Z,7.13
2023-02-24T13:07:17.824Z,9.65
2023-02-24T13:09:44.631Z,10.00
2023-02-24T13:12:20.748Z,8.93
2023-02-24T13:14:48.382Z,13.77
2023-02-24T13:17:20.855Z,9.48
2023-02-24T13:19:49.019Z,9.25
2023-02-24T13:22:17.085Z,9.55
2023-02-24T13:24:57.088Z,12.95
2023-02-24T13:27:25.141Z,11.93
2023-02-24T13:29:54.024Z,9.45
2023-02-24T13:32:24.734Z,10.20
2023-02-24T13:34:51.852Z,10.60
2023-02-24T13:37:32.924Z,10.73
2023-02-24T13:40:00.130Z,7.73
2023-02-24T13:42:28.927Z,8.30
2023-02-24T13:45:01.926Z,8.65
2023-02-24T13:47:29.383Z,9.57
2023-02-24T13:50:02.524Z,9.77
2023-02-24T13:52:35.487Z,10.23
2023-02-24T13:55:10.199Z,19.73
2023-02-24T13:57:55.811Z,14.30
2023-02-24T14:00:35.152Z,14.45
2023-02-24T14:03:08.924Z,22.48
2023-02-24T14:05:36.489Z,11.38
2023-02-24T14:08:03.973Z,11.25
2023-02-24T14:10:33.430Z,8.45
2023-02-24T14:13:13.819Z,9.52
2023-02-24T14:15:42.462Z,9.00
2023-02-24T14:18:20.020Z,7.65
2023-02-24T14:20:47.069Z,8.70
2023-02-24T14:23:41.554Z,9.07
2023-02-24T14:26:12.377Z,5.82
2023-02-24T14:28:40.222Z,8.05
2023-02-24T14:31:09.561Z,7.80
2023-02-24T14:33:37.136Z,7.80
2023-02-24T14:36:05.056Z,6.53
2023-02-24T14:38:32.080Z,7.97
2023-02-24T14:40:58.869Z,5.88
2023-02-24T14:43:25.771Z,7.35
2023-02-24T14:45:53.439Z,6.35
2023-02-24T14:48:23.220Z,6.88
2023-02-24T14:50:53.277Z,9.00
2023-02-24T14:53:22.558Z,4.38
2023-02-24T14:55:51.724Z,6.97
2023-02-24T14:58:18.593Z,7.13
2023-02-24T15:00:54.534Z,8.55
2023-02-24T15:03:29.532Z,7.78
2023-02-24T15:05:58.243Z,5.57
2023-02-24T15:08:25.102Z,6.28
2023-02-24T15:10:53.419Z,6.78
2023-02-24T15:13:29.484Z,8.93
2023-02-24T15:15:57.162Z,8.20
2023-02-24T15:18:25.511Z,9.38
2023-02-24T15:21:06.800Z,8.15
2023-02-24T15:23:37.905Z,6.32
2023-02-24T15:26:10.836Z,11.97
2023-02-24T15:28:38.177Z,14.27
2023-02-24T15:31:16.949Z,10.48
2023-02-24T15:33:45.536Z,12.23
2023-02-24T15:36:17.810Z,7.93
2023-02-24T15:38:51.706Z,8.68
2023-02-24T15:41:18.613Z,7.53
2023-02-24T15:43:56.638Z,8.07
2023-02-24T15:46:34.154Z,12.35
2023-02-24T15:49:03.393Z,13.30
2023-02-24T15:51:47.198Z,9.48
2023-02-24T15:54:27.679Z,9.38
2023-02-24T15:56:57.103Z,8.85
2023-02-24T15:59:25.610Z,9.07
2023-02-24T16:01:52.550Z,8.90
2023-02-24T16:04:19.886Z,8.10
2023-02-24T16:06:55.054Z,8.13
2023-02-24T16:09:33.958Z,9.70
2023-02-24T16:12:04.220Z,8.95
2023-02-24T16:14:31.089Z,7.63
2023-02-24T16:16:58.960Z,8.90
2023-02-24T16:19:27.858Z,8.60
2023-02-24T16:21:58.066Z,8.30
2023-02-24T16:24:25.312Z,9.40
2023-02-24T16:26:52.533Z,9.18
2023-02-24T16:29:21.933Z,6.32
2023-02-24T16:31:49.065Z,9.20
2023-02-24T16:34:19.757Z,5.97
2023-02-24T16:36:47.951Z,7.40
2023-02-24T16:39:20.697Z,5.90
2023-02-24T16:41:47.776Z,8.68
2023-02-24T16:44:15.063Z,5.65
2023-02-24T16:46:45.064Z,10.02
2023-02-24T16:49:18.972Z,6.35
2023-02-24T16:51:45.897Z,6.93
2023-02-24T16:54:13.551Z,7.97
2023-02-24T16:56:40.524Z,8.68
2023-02-24T16:59:07.957Z,5.68
2023-02-24T17:01:35.012Z,7.63
2023-02-24T17:04:05.722Z,8.40
2023-02-24T17:06:32.736Z,4.25
2023-02-24T17:09:02.040Z,6.38
2023-02-24T17:11:29.170Z,8.30
2023-02-24T17:13:56.582Z,7.32
2023-02-24T17:16:23.878Z,5.60
2023-02-24T17:18:51.388Z,9.30
2023-02-24T17:21:18.639Z,6.43
2023-02-24T17:23:46.148Z,6.38
2023-02-24T17:26:14.288Z,6.65
2023-02-24T17:32:14.330Z,5.13
2023-02-24T17:34:41.619Z,4.63
2023-02-24T17:37:08.383Z,2.15
2023-02-24T17:39:37.696Z,2.97
2023-02-24T17:42:04.619Z,2.53
2023-02-24T17:44:31.729Z,2.78
2023-02-24T17:46:58.803Z,3.63
2023-02-24T17:49:25.677Z,2.80
2023-02-24T17:51:52.645Z,3.30
2023-02-24T17:54:19.653Z,2.40
2023-02-24T17:56:48.964Z,3.33
2023-02-24T17:59:20.234Z,2.90
2023-02-24T18:01:47.309Z,2.08
2023-02-24T18:04:14.847Z,1.80
2023-02-24T18:06:45.419Z,2.53
2023-02-24T18:09:13.039Z,2.63
2023-02-24T18:11:41.994Z,3.70
2023-02-24T18:14:15.277Z,3.30
2023-02-24T18:16:42.640Z,4.10
2023-02-24T18:19:12.558Z,2.97
2023-02-24T18:21:39.423Z,5.18
2023-02-24T18:24:07.670Z,3.88
2023-02-24T18:26:34.673Z,4.18
2023-02-24T18:29:02.772Z,4.30
2023-02-24T18:31:30.469Z,5.28
2023-02-24T18:34:06.478Z,3.30
2023-02-24T18:36:36.055Z,3.42
2023-02-24T18:39:03.066Z,3.05
2023-02-24T18:41:33.197Z,3.10
2023-02-24T18:44:00.351Z,3.63
2023-02-24T18:46:29.132Z,3.00
2023-02-24T18:48:57.807Z,3.00
2023-02-24T18:51:29.276Z,3.42
2023-02-24T18:54:00.967Z,5.95
2023-02-24T18:56:31.882Z,5.45
2023-02-24T18:58:59.555Z,3.45
2023-02-24T19:01:29.971Z,4.43
2023-02-24T19:04:00.639Z,3.53
2023-02-24T19:06:28.445Z,4.00
2023-02-24T19:08:58.681Z,5.18
2023-02-24T19:11:31.643Z,3.75
2023-02-24T19:13:59.613Z,4.15
2023-02-24T19:16:28.103Z,6.93
2023-02-24T19:18:56.506Z,3.00
2023-02-24T19:21:29.045Z,4.45
2023-02-24T19:23:58.969Z,9.68
2023-02-24T19:26:28.857Z,3.80
2023-02-24T19:29:01.301Z,4.57
2023-02-24T19:31:32.770Z,6.57
2023-02-24T19:34:05.249Z,4.15
2023-02-24T19:36:34.698Z,3.75
2023-02-24T19:39:02.112Z,5.00
2023-02-24T19:41:34.605Z,5.95
2023-02-24T19:44:05.754Z,3.92
2023-02-24T19:46:33.016Z,4.35
2023-02-24T19:49:06.861Z,4.43
2023-02-24T19:51:35.321Z,4.15
2023-02-24T19:54:11.489Z,6.35
2023-02-24T19:56:39.073Z,3.50
2023-02-24T19:59:07.112Z,5.68
2023-02-24T20:01:36.455Z,7.35
2023-02-24T20:04:04.709Z,4.47
2023-02-24T20:06:39.076Z,4.03
2023-02-24T20:09:10.723Z,5.50
2023-02-24T20:14:06.377Z,3.60
2023-02-24T20:16:35.822Z,4.88
2023-02-24T20:19:07.715Z,5.72
2023-02-24T20:21:35.232Z,4.72
2023-02-24T20:24:07.918Z,4.35
2023-02-24T20:26:44.364Z,4.50
2023-02-24T20:29:11.619Z,5.63
2023-02-24T20:31:42.113Z,5.90
2023-02-24T20:34:14.731Z,5.90
2023-02-24T20:36:43.974Z,4.47
2023-02-24T20:39:15.081Z,5.35
2023-02-24T20:41:42.539Z,5.35
2023-02-24T20:44:10.771Z,4.30
2023-02-24T20:46:37.816Z,4.35
2023-02-24T20:49:08.794Z,7.00
2023-02-24T20:51:41.176Z,3.72
2023-02-24T20:54:09.516Z,3.63
2023-02-24T20:56:37.231Z,4.95
2023-02-24T20:59:16.962Z,4.07
2023-02-24T21:01:47.083Z,4.30
2023-02-24T21:04:16.407Z,5.82
2023-02-24T21:06:46.593Z,4.70
2023-02-24T21:09:14.589Z,4.32
2023-02-24T21:11:43.873Z,4.05
2023-02-24T21:14:15.151Z,5.45
2023-02-24T21:16:42.311Z,5.03
2023-02-24T21:19:17.089Z,3.45
2023-02-24T21:21:44.058Z,4.30
2023-02-24T21:24:13.934Z,2.88
2023-02-24T21:26:41.112Z,3.22
2023-02-24T21:29:08.909Z,3.70
2023-02-24T21:31:35.957Z,3.85
2023-02-24T21:34:06.774Z,3.38
2023-02-24T21:36:33.979Z,6.90
2023-02-24T21:39:06.217Z,2.78
2023-02-24T21:41:36.274Z,2.95
2023-02-24T21:44:11.621Z,2.15
2023-02-24T21:46:38.948Z,2.33
2023-02-24T21:49:06.986Z,2.08
2023-02-24T21:51:34.128Z,2.72
2023-02-24T21:54:01.709Z,2.92
2023-02-24T21:56:29.340Z,2.55
2023-02-24T21:59:00.738Z,2.75
2023-02-24T22:01:29.749Z,1.85
2023-02-24T22:04:00.480Z,2.45
2023-02-24T22:06:33.262Z,2.97
2023-02-24T22:09:01.636Z,2.47
2023-02-24T22:11:30.074Z,2.83
2023-02-24T22:13:56.868Z,2.53
2023-02-24T22:16:25.138Z,1.98
2023-02-24T22:18:52.971Z,1.88
2023-02-24T22:21:22.152Z,1.75
2023-02-24T22:23:51.206Z,1.98
2023-02-24T22:26:18.948Z,1.02
2023-02-24T22:28:48.606Z,1.38
2023-02-24T22:31:17.123Z,1.35
2023-02-24T22:33:44.800Z,1.52
2023-02-24T22:36:15.882Z,1.02
2023-02-24T22:38:43.090Z,1.23
2023-02-24T22:41:14.155Z,1.65
2023-02-24T22:43:41.107Z,1.45
2023-02-24T22:46:09.220Z,1.23
2023-02-24T22:48:37.287Z,1.55
2023-02-24T22:51:06.112Z,1.85
2023-02-24T22:53:34.667Z,1.25
2023-02-24T22:56:01.527Z,1.00
2023-02-24T22:58:31.181Z,1.35
2023-02-24T23:00:59.677Z,0.98
2023-02-24T23:03:30.560Z,1.10
2023-02-24T23:06:01.745Z,1.23
2023-02-24T23:08:30.564Z,0.82
2023-02-24T23:11:03.570Z,1.13
2023-02-24T23:13:30.548Z,1.10
2023-02-24T23:16:00.647Z,1.80
2023-02-24T23:18:27.871Z,1.00
2023-02-24T23:21:03.552Z,0.85
2023-02-24T23:23:31.349Z,0.98
2023-02-24T23:25:58.498Z,1.20
2023-02-24T23:28:25.547Z,1.02
2023-02-24T23:30:53.696Z,1.00
2023-02-24T23:33:20.977Z,1.17
2023-02-24T23:35:47.872Z,1.00
2023-02-24T23:38:15.352Z,0.77
2023-02-24T23:40:50.112Z,0.65
2023-02-24T23:43:17.644Z,0.82
2023-02-24T23:45:45.104Z,1.05
2023-02-24T23:48:13.362Z,1.00
2023-02-24T23:50:41.134Z,1.10
2023-02-24T23:53:09.988Z,1.02
2023-02-24T23:55:39.386Z,1.15
2023-02-24T23:58:07.583Z,1.75
